createdAt,value
2018-05-14T00:00:26.066Z,122.50
2018-05-14T00:02:22.516Z,121.10
2018-05-14T00:03:21.993Z,117.80
2018-05-14T00:05:17.929Z,113.70
2018-05-14T00:06:17.926Z,115.40
2018-05-14T00:08:13.903Z,120.70
2018-05-14T00:09:13.881Z,123.50
2018-05-14T00:11:09.798Z,130.20
2018-05-14T00:12:10.319Z,129.90
2018-05-14T00:14:05.739Z,130.70
2018-05-14T00:15:06.744Z,128.10
2018-05-14T00:17:01.685Z,129.10
2018-05-14T00:18:01.684Z,140.30
2018-05-14T00:19:57.666Z,150.10
2018-05-14T00:20:57.643Z,152.70
2018-05-14T00:22:54.094Z,147.70
2018-05-14T00:23:53.594Z,145.30
2018-05-14T00:25:49.514Z,151.30
2018-05-14T00:26:49.517Z,166.30
2018-05-14T00:28:46.965Z,157.40
2018-05-14T00:29:45.439Z,161.10
2018-05-14T00:31:41.900Z,169.40
2018-05-14T00:32:41.389Z,159.30
2018-05-14T00:34:37.896Z,170.00
2018-05-14T00:35:37.346Z,169.90
2018-05-14T00:37:33.269Z,160.70
2018-05-14T00:38:33.268Z,160.90
2018-05-14T00:40:29.214Z,169.40
2018-05-14T00:41:29.234Z,168.90
2018-05-14T00:43:25.184Z,175.20
2018-05-14T00:44:25.157Z,167.80
2018-05-14T00:46:24.122Z,170.20
2018-05-14T00:47:24.115Z,188.30
2018-05-14T00:49:19.711Z,207.00
2018-05-14T00:50:19.180Z,183.40
2018-05-14T00:52:15.102Z,196.30
2018-05-14T00:53:15.111Z,212.20
2018-05-14T00:55:11.122Z,207.40
2018-05-14T00:56:11.576Z,204.00
2018-05-14T00:58:09.536Z,219.80
2018-05-14T00:59:09.015Z,205.90
2018-05-14T01:01:04.982Z,204.50
2018-05-14T01:02:04.910Z,212.00
2018-05-14T01:04:02.863Z,210.40
2018-05-14T01:05:02.852Z,221.20
2018-05-14T01:06:59.295Z,215.80
2018-05-14T01:07:58.808Z,214.60
2018-05-14T01:09:56.749Z,222.90
2018-05-14T01:10:56.728Z,221.50
2018-05-14T01:12:52.701Z,235.00
2018-05-14T01:13:52.669Z,221.50
2018-05-14T01:15:48.621Z,221.80
2018-05-14T01:16:48.634Z,232.80
2018-05-14T01:18:43.045Z,212.60
2018-05-14T01:19:43.043Z,229.20
2018-05-14T01:21:38.934Z,230.70
2018-05-14T01:22:39.493Z,220.70
2018-05-14T01:24:36.395Z,243.60
2018-05-14T01:25:34.876Z,245.20
2018-05-14T01:27:31.349Z,240.60
2018-05-14T01:28:30.825Z,234.60
2018-05-14T01:30:25.782Z,249.40
2018-05-14T01:31:25.786Z,240.00
2018-05-14T01:33:21.221Z,238.40
2018-05-14T01:34:21.215Z,233.00
2018-05-14T01:36:17.198Z,237.70
2018-05-14T01:37:17.147Z,225.30
2018-05-14T01:39:13.117Z,222.00
2018-05-14T01:40:13.085Z,227.60
2018-05-14T01:42:11.049Z,239.10
2018-05-14T01:43:11.044Z,227.10
2018-05-14T01:45:08.494Z,240.60
2018-05-14T01:46:06.963Z,224.50
2018-05-14T01:48:02.931Z,226.60
2018-05-14T01:49:03.422Z,222.70
2018-05-14T01:50:59.351Z,229.60
2018-05-14T01:51:58.823Z,220.60
2018-05-14T01:53:55.304Z,222.30
2018-05-14T01:54:54.780Z,214.20
2018-05-14T01:56:50.742Z,229.60
2018-05-14T01:57:50.726Z,219.90
2018-05-14T01:59:46.719Z,208.30
2018-05-14T02:00:46.672Z,220.20
2018-05-14T02:02:44.657Z,231.90
2018-05-14T02:03:44.639Z,235.70
2018-05-14T02:05:43.084Z,210.20
2018-05-14T02:06:42.575Z,212.20
2018-05-14T02:08:38.548Z,198.80
2018-05-14T02:09:38.515Z,193.20
2018-05-14T02:11:34.971Z,206.10
2018-05-14T02:12:34.430Z,205.20
2018-05-14T02:14:30.418Z,224.40
2018-05-14T02:15:30.904Z,199.60
2018-05-14T02:17:26.324Z,211.30
2018-05-14T02:18:26.313Z,211.70
2018-05-14T02:20:22.284Z,191.20
2018-05-14T02:21:22.253Z,193.10
2018-05-14T02:23:20.731Z,182.60
2018-05-14T02:24:20.195Z,191.50
2018-05-14T02:26:14.622Z,183.40
2018-05-14T02:27:14.629Z,160.30
2018-05-14T02:29:10.596Z,177.00
2018-05-14T02:30:10.574Z,182.90
2018-05-14T02:32:06.516Z,180.70
2018-05-14T02:33:06.513Z,166.20
2018-05-14T02:35:01.457Z,181.00
2018-05-14T02:36:00.954Z,174.00
2018-05-14T02:37:59.403Z,177.10
2018-05-14T02:38:59.405Z,180.80
2018-05-14T02:40:54.792Z,185.60
2018-05-14T02:41:55.357Z,176.10
2018-05-14T02:43:50.801Z,190.60
2018-05-14T02:44:50.751Z,179.20
2018-05-14T02:46:46.709Z,177.80
2018-05-14T02:47:46.695Z,179.10
2018-05-14T02:49:42.617Z,186.10
2018-05-14T02:50:43.141Z,189.90
2018-05-14T02:52:39.085Z,187.10
2018-05-14T02:53:38.581Z,185.10
2018-05-14T02:55:34.597Z,167.40
2018-05-14T02:56:35.042Z,184.90
2018-05-14T02:58:31.401Z,177.10
2018-05-14T02:59:30.440Z,166.70
2018-05-14T03:01:26.353Z,186.70
2018-05-14T03:02:26.346Z,173.00
2018-05-14T03:04:22.307Z,167.00
2018-05-14T03:05:22.286Z,173.80
2018-05-14T03:07:19.242Z,163.00
2018-05-14T03:08:18.748Z,162.70
2018-05-14T03:10:14.175Z,155.60
2018-05-14T03:11:14.682Z,163.30
2018-05-14T03:13:10.123Z,160.30
2018-05-14T03:14:10.120Z,151.40
2018-05-14T03:16:03.555Z,150.70
2018-05-14T03:17:03.557Z,152.30
2018-05-14T03:18:59.546Z,145.90
2018-05-14T03:19:59.494Z,147.50
2018-05-14T03:21:55.455Z,147.40
2018-05-14T03:22:55.441Z,149.40
2018-05-14T03:24:51.404Z,141.90
2018-05-14T03:25:51.415Z,155.50
2018-05-14T03:27:47.856Z,155.10
2018-05-14T03:28:47.857Z,143.50
2018-05-14T03:30:43.226Z,146.20
2018-05-14T03:31:43.220Z,153.70
2018-05-14T03:33:39.156Z,146.00
2018-05-14T03:34:39.183Z,154.20
2018-05-14T03:36:36.059Z,153.50
2018-05-14T03:37:35.123Z,153.50
2018-05-14T03:39:31.069Z,149.80
2018-05-14T03:40:31.053Z,152.00
2018-05-14T03:42:27.501Z,151.80
2018-05-14T03:43:27.001Z,153.80
2018-05-14T03:45:22.960Z,150.30
2018-05-14T03:46:23.447Z,142.20
2018-05-14T03:48:19.403Z,138.70
2018-05-14T03:49:19.417Z,148.20
2018-05-14T03:51:14.807Z,137.60
2018-05-14T03:52:14.797Z,143.80
2018-05-14T03:54:12.250Z,131.60
2018-05-14T03:55:10.741Z,137.10
2018-05-14T03:57:07.263Z,128.10
2018-05-14T03:58:07.185Z,129.90
2018-05-14T04:00:03.130Z,129.90
2018-05-14T04:01:03.121Z,136.00
2018-05-14T04:02:57.050Z,127.60
2018-05-14T04:03:57.065Z,136.40
2018-05-14T04:05:55.015Z,135.30
2018-05-14T04:06:53.545Z,135.80
2018-05-14T04:08:48.948Z,137.20
2018-05-14T04:09:48.943Z,131.50
2018-05-14T04:11:44.926Z,147.20
2018-05-14T04:12:45.410Z,132.50
2018-05-14T04:14:41.343Z,143.90
2018-05-14T04:15:40.857Z,131.60
2018-05-14T04:17:34.316Z,125.50
2018-05-14T04:18:34.287Z,125.50
2018-05-14T04:20:30.714Z,131.90
2018-05-14T04:21:30.716Z,131.00
2018-05-14T04:23:25.675Z,128.50
2018-05-14T04:24:24.734Z,134.10
2018-05-14T04:26:20.625Z,127.10
2018-05-14T04:27:20.629Z,127.70
2018-05-14T04:29:17.078Z,126.40
2018-05-14T04:30:17.096Z,135.00
2018-05-14T04:32:12.523Z,127.20
2018-05-14T04:33:11.010Z,121.70
2018-05-14T04:35:05.456Z,130.50
2018-05-14T04:36:05.962Z,128.10
2018-05-14T04:38:01.441Z,130.70
2018-05-14T04:39:01.911Z,127.80
2018-05-14T04:40:57.286Z,118.50
2018-05-14T04:41:57.306Z,129.60
2018-05-14T04:43:53.784Z,140.50
2018-05-14T04:44:53.228Z,127.40
2018-05-14T04:46:49.241Z,132.50
2018-05-14T04:47:49.227Z,138.90
2018-05-14T04:49:43.659Z,131.10
2018-05-14T04:50:43.674Z,138.70
2018-05-14T04:52:40.107Z,133.70
2018-05-14T04:53:39.593Z,135.00
2018-05-14T04:55:35.540Z,140.10
2018-05-14T04:56:35.546Z,134.70
2018-05-14T04:58:31.495Z,136.60
2018-05-14T04:59:31.489Z,143.20
2018-05-14T05:01:27.482Z,139.90
2018-05-14T05:02:27.431Z,140.70
2018-05-14T05:04:23.368Z,143.90
2018-05-14T05:05:23.358Z,140.90
2018-05-14T05:07:19.817Z,137.30
2018-05-14T05:08:19.306Z,138.10
2018-05-14T05:10:17.913Z,139.80
2018-05-14T05:11:17.771Z,132.80
2018-05-14T05:13:14.209Z,146.40
2018-05-14T05:14:13.209Z,145.20
2018-05-14T05:16:09.153Z,144.60
2018-05-14T05:17:09.188Z,143.40
2018-05-14T05:19:05.620Z,141.00
2018-05-14T05:20:05.626Z,143.70
2018-05-14T05:22:01.066Z,143.30
2018-05-14T05:23:01.059Z,158.10
2018-05-14T05:24:57.014Z,145.90
2018-05-14T05:25:56.993Z,147.10
2018-05-14T05:27:53.447Z,144.40
2018-05-14T05:28:52.966Z,141.90
2018-05-14T05:30:48.925Z,155.10
2018-05-14T05:31:48.847Z,144.60
2018-05-14T05:33:44.800Z,148.50
2018-05-14T05:34:45.294Z,144.10
2018-05-14T05:36:39.725Z,142.30
2018-05-14T05:37:39.223Z,145.30
2018-05-14T05:39:35.149Z,139.50
2018-05-14T05:40:35.166Z,145.30
2018-05-14T05:42:31.596Z,140.70
2018-05-14T05:43:31.097Z,153.20
2018-05-14T05:45:27.054Z,154.70
2018-05-14T05:46:27.042Z,151.00
2018-05-14T05:48:22.976Z,158.90
2018-05-14T05:49:22.974Z,148.30
2018-05-14T05:51:19.417Z,144.60
2018-05-14T05:52:18.941Z,137.70
2018-05-14T05:54:14.854Z,132.80
2018-05-14T05:55:15.372Z,142.80
2018-05-14T05:57:13.842Z,144.30
2018-05-14T05:58:13.827Z,140.60
2018-05-14T06:00:09.910Z,143.90
2018-05-14T06:01:09.949Z,144.20
2018-05-14T06:03:05.388Z,123.30
2018-05-14T06:04:04.941Z,133.20
2018-05-14T06:06:03.366Z,141.30
2018-05-14T06:07:03.000Z,140.70
2018-05-14T06:09:02.941Z,131.20
2018-05-14T06:10:01.117Z,127.70
2018-05-14T06:12:00.091Z,130.20
2018-05-14T06:12:59.099Z,135.10
2018-05-14T06:14:55.027Z,127.70
2018-05-14T06:15:55.036Z,132.30
2018-05-14T06:17:50.424Z,127.20
2018-05-14T06:18:50.496Z,125.40
2018-05-14T06:20:46.453Z,133.70
2018-05-14T06:21:45.401Z,133.00
2018-05-14T06:23:41.348Z,130.60
2018-05-14T06:24:41.334Z,121.40
2018-05-14T06:26:38.313Z,119.70
2018-05-14T06:27:37.811Z,124.00
2018-05-14T06:29:34.729Z,116.90
2018-05-14T06:30:33.223Z,119.20
2018-05-14T06:32:30.173Z,120.10
2018-05-14T06:33:29.189Z,113.80
2018-05-14T06:35:25.186Z,111.80
2018-05-14T06:36:25.138Z,120.00
2018-05-14T06:38:21.588Z,105.50
2018-05-14T06:39:21.641Z,102.40
2018-05-14T06:41:17.527Z,110.60
2018-05-14T06:42:16.975Z,111.90
2018-05-14T06:44:12.936Z,116.30
2018-05-14T06:45:12.929Z,107.00
2018-05-14T06:47:08.895Z,104.00
2018-05-14T06:48:09.376Z,105.50
2018-05-14T06:50:05.345Z,109.70
2018-05-14T06:51:04.830Z,102.90
2018-05-14T06:53:00.772Z,100.50
2018-05-14T06:54:00.781Z,102.50
2018-05-14T06:55:56.724Z,111.20
2018-05-14T06:56:56.718Z,99.90
2018-05-14T06:58:52.668Z,100.70
2018-05-14T06:59:52.655Z,100.60
2018-05-14T07:01:48.631Z,97.20
2018-05-14T07:02:48.626Z,95.20
2018-05-14T07:04:44.568Z,89.90
2018-05-14T07:05:44.557Z,89.40
2018-05-14T07:07:40.518Z,88.20
2018-05-14T07:08:40.499Z,94.00
2018-05-14T07:10:36.496Z,85.10
2018-05-14T07:11:36.467Z,84.90
2018-05-14T07:13:32.919Z,82.00
2018-05-14T07:14:32.395Z,87.50
2018-05-14T07:16:28.374Z,82.30
2018-05-14T07:17:28.370Z,77.10
2018-05-14T07:19:24.366Z,88.60
2018-05-14T07:20:24.527Z,82.70
2018-05-14T07:22:20.244Z,82.70
2018-05-14T07:23:20.254Z,83.80
2018-05-14T07:25:16.222Z,82.50
2018-05-14T07:26:16.222Z,80.30
2018-05-14T07:28:12.145Z,77.10
2018-05-14T07:29:12.167Z,77.00
2018-05-14T07:31:08.627Z,71.50
2018-05-14T07:32:08.642Z,70.40
2018-05-14T07:34:03.537Z,79.30
2018-05-14T07:35:02.515Z,74.70
2018-05-14T07:36:57.013Z,65.70
2018-05-14T07:37:56.029Z,66.40
2018-05-14T07:39:50.499Z,65.60
2018-05-14T07:40:50.471Z,67.40
2018-05-14T07:42:46.413Z,75.20
2018-05-14T07:43:46.448Z,73.50
2018-05-14T07:45:40.894Z,74.70
2018-05-14T07:46:40.872Z,74.50
2018-05-14T07:48:36.852Z,79.40
2018-05-14T07:49:36.841Z,78.80
2018-05-14T07:51:31.302Z,72.50
2018-05-14T07:52:30.268Z,72.70
2018-05-14T07:54:26.398Z,73.80
2018-05-14T07:55:26.276Z,69.80
2018-05-14T07:57:24.740Z,76.70
2018-05-14T07:58:24.247Z,76.00
2018-05-14T08:00:22.211Z,72.00
2018-05-14T08:01:22.161Z,76.40
2018-05-14T08:03:19.644Z,73.90
2018-05-14T08:04:18.975Z,73.00
2018-05-14T08:06:15.436Z,70.00
2018-05-14T08:07:14.989Z,68.40
2018-05-14T08:09:10.875Z,65.00
2018-05-14T08:10:10.884Z,66.90
2018-05-14T08:12:10.369Z,66.30
2018-05-14T08:13:09.870Z,71.00
2018-05-14T08:15:05.474Z,70.10
2018-05-14T08:16:05.492Z,74.20
2018-05-14T08:18:02.986Z,74.40
2018-05-14T08:19:03.415Z,71.10
2018-05-14T08:20:59.811Z,73.80
2018-05-14T08:22:00.394Z,69.60
2018-05-14T08:23:55.784Z,71.00
2018-05-14T08:24:55.800Z,73.00
2018-05-14T08:26:51.767Z,68.90
2018-05-14T08:27:51.766Z,71.00
2018-05-14T08:29:47.713Z,74.90
2018-05-14T08:30:47.712Z,72.40
2018-05-14T08:32:44.168Z,70.90
2018-05-14T08:33:43.642Z,75.00
2018-05-14T08:35:39.591Z,69.70
2018-05-14T08:36:40.600Z,74.90
2018-05-14T08:38:39.085Z,75.90
2018-05-14T08:39:37.701Z,74.60
2018-05-14T08:41:35.625Z,72.80
2018-05-14T08:42:35.642Z,73.60
2018-05-14T08:44:33.747Z,71.70
2018-05-14T08:45:33.739Z,72.20
2018-05-14T08:47:30.704Z,69.40
2018-05-14T08:48:29.698Z,66.80
2018-05-14T08:50:25.682Z,67.80
2018-05-14T08:51:25.644Z,71.80
2018-05-14T08:53:21.614Z,66.90
2018-05-14T08:54:21.718Z,67.20
2018-05-14T08:56:18.067Z,68.70
2018-05-14T08:57:17.556Z,65.80
2018-05-14T08:59:13.521Z,62.90
2018-05-14T09:00:13.516Z,63.30
2018-05-14T09:02:11.469Z,60.10
2018-05-14T09:03:09.505Z,61.50
2018-05-14T09:05:05.447Z,59.30
2018-05-14T09:06:05.452Z,59.30
2018-05-14T09:08:02.937Z,63.80
2018-05-14T09:09:01.395Z,61.20
2018-05-14T09:10:57.347Z,61.60
2018-05-14T09:11:57.329Z,60.00
2018-05-14T09:13:53.282Z,59.50
2018-05-14T09:14:53.278Z,59.00
2018-05-14T09:16:49.232Z,61.40
2018-05-14T09:17:49.232Z,57.40
2018-05-14T09:19:48.188Z,59.10
2018-05-14T09:20:47.345Z,58.50
2018-05-14T09:22:43.297Z,54.50
2018-05-14T09:23:43.288Z,54.50
2018-05-14T09:25:39.757Z,57.70
2018-05-14T09:26:39.237Z,57.50
2018-05-14T09:28:41.390Z,57.50
2018-05-14T09:29:35.711Z,57.60
2018-05-14T09:31:33.145Z,53.20
2018-05-14T09:32:33.128Z,54.60
2018-05-14T09:34:31.235Z,57.80
2018-05-14T09:35:31.256Z,58.00
2018-05-14T09:37:27.217Z,54.70
2018-05-14T09:38:27.746Z,54.20
2018-05-14T09:40:23.169Z,54.00
2018-05-14T09:41:23.646Z,55.10
2018-05-14T09:43:19.097Z,54.50
2018-05-14T09:44:19.601Z,56.60
2018-05-14T09:46:15.643Z,58.70
2018-05-14T09:47:15.074Z,57.40
2018-05-14T09:49:13.071Z,55.50
2018-05-14T09:50:13.004Z,55.80
2018-05-14T09:52:11.995Z,57.30
2018-05-14T09:53:11.472Z,55.60
2018-05-14T09:55:08.423Z,54.20
2018-05-14T09:56:08.428Z,54.10
2018-05-14T09:58:03.890Z,58.20
2018-05-14T09:59:02.912Z,53.90
2018-05-14T10:00:59.892Z,51.40
2018-05-14T10:01:58.793Z,54.30
2018-05-14T10:03:54.767Z,55.20
2018-05-14T10:04:55.763Z,54.20
2018-05-14T10:06:53.758Z,52.80
2018-05-14T10:07:52.900Z,54.50
2018-05-14T10:09:49.352Z,51.30
2018-05-14T10:10:48.838Z,50.60
2018-05-14T10:12:44.834Z,53.10
2018-05-14T10:13:44.818Z,52.60
2018-05-14T10:15:41.763Z,49.20
2018-05-14T10:16:40.760Z,49.50
2018-05-14T10:18:37.230Z,53.50
2018-05-14T10:19:36.708Z,50.40
2018-05-14T10:21:33.193Z,51.00
2018-05-14T10:22:32.664Z,47.50
2018-05-14T10:24:29.106Z,44.60
2018-05-14T10:25:28.595Z,49.00
2018-05-14T10:27:24.555Z,49.50
2018-05-14T10:28:24.539Z,50.80
2018-05-14T10:30:23.485Z,47.10
2018-05-14T10:31:22.646Z,47.40
2018-05-14T10:33:18.673Z,44.40
2018-05-14T10:34:18.608Z,44.90
2018-05-14T10:36:16.570Z,47.10
2018-05-14T10:37:17.110Z,44.50
2018-05-14T10:39:13.560Z,44.00
2018-05-14T10:40:13.516Z,44.50
2018-05-14T10:42:09.492Z,43.90
2018-05-14T10:43:09.012Z,44.90
2018-05-14T10:45:04.959Z,43.70
2018-05-14T10:46:04.445Z,46.80
2018-05-14T10:48:00.419Z,44.90
2018-05-14T10:49:00.440Z,44.10
2018-05-14T10:50:56.394Z,47.30
2018-05-14T10:51:56.350Z,43.00
2018-05-14T10:53:53.306Z,43.30
2018-05-14T10:54:53.307Z,45.90
2018-05-14T10:56:49.775Z,46.50
2018-05-14T10:57:48.785Z,44.80
2018-05-14T10:59:44.253Z,44.90
2018-05-14T11:00:44.228Z,45.90
2018-05-14T11:02:40.204Z,42.50
2018-05-14T11:03:40.186Z,43.60
2018-05-14T11:05:36.144Z,46.40
2018-05-14T11:06:36.152Z,44.00
2018-05-14T11:08:32.626Z,41.40
2018-05-14T11:09:32.110Z,42.30
2018-05-14T11:11:28.105Z,46.60
2018-05-14T11:12:28.044Z,47.50
2018-05-14T11:14:23.995Z,45.40
2018-05-14T11:15:23.994Z,43.90
2018-05-14T11:17:19.983Z,44.20
2018-05-14T11:18:19.944Z,42.80
2018-05-14T11:20:15.951Z,43.50
2018-05-14T11:21:15.916Z,47.20
2018-05-14T11:23:13.850Z,42.50
2018-05-14T11:24:13.868Z,43.30
2018-05-14T11:26:10.347Z,40.60
2018-05-14T11:27:09.820Z,42.60
2018-05-14T11:29:06.831Z,41.30
2018-05-14T11:30:05.806Z,40.00
2018-05-14T11:32:01.782Z,40.60
2018-05-14T11:33:01.739Z,39.40
2018-05-14T11:34:57.708Z,44.70
2018-05-14T11:35:57.701Z,43.80
2018-05-14T11:37:53.657Z,41.40
2018-05-14T11:38:53.659Z,41.10
2018-05-14T11:40:49.579Z,40.40
2018-05-14T11:41:49.585Z,39.30
2018-05-14T11:43:47.702Z,40.00
2018-05-14T11:44:50.467Z,39.70
2018-05-14T11:46:43.668Z,38.90
2018-05-14T11:47:43.654Z,39.80
2018-05-14T11:49:41.600Z,38.90
2018-05-14T11:50:41.724Z,39.40
2018-05-14T11:52:38.085Z,39.50
2018-05-14T11:53:38.497Z,39.60
2018-05-14T11:55:35.021Z,38.70
2018-05-14T11:56:35.111Z,38.80
2018-05-14T11:58:31.628Z,38.60
2018-05-14T11:59:31.665Z,38.90
2018-05-14T12:01:27.545Z,38.40
2018-05-14T12:02:27.553Z,38.00
2018-05-14T12:04:30.012Z,38.90
2018-05-14T12:05:29.032Z,36.70
2018-05-14T12:07:26.158Z,36.60
2018-05-14T12:08:28.005Z,36.80
2018-05-14T12:10:23.154Z,35.30
2018-05-14T12:11:22.629Z,36.50
2018-05-14T12:13:20.059Z,34.60
2018-05-14T12:14:20.082Z,35.40
2018-05-14T12:16:16.135Z,34.70
2018-05-14T12:17:16.056Z,33.20
2018-05-14T12:19:12.040Z,33.80
2018-05-14T12:20:12.038Z,34.80
2018-05-14T12:22:08.491Z,34.30
2018-05-14T12:23:08.497Z,35.40
2018-05-14T12:25:03.978Z,33.50
2018-05-14T12:26:03.964Z,33.60
2018-05-14T12:28:00.434Z,32.90
2018-05-14T12:28:59.991Z,33.30
2018-05-14T12:30:58.435Z,27.90
2018-05-14T12:31:57.920Z,30.40
2018-05-14T12:33:59.321Z,27.30
2018-05-14T12:34:58.309Z,26.50
2018-05-14T12:36:54.848Z,25.50
2018-05-14T12:37:54.278Z,26.00
2018-05-14T12:39:50.783Z,27.10
2018-05-14T12:40:50.750Z,26.00
2018-05-14T12:42:48.696Z,26.30
2018-05-14T12:43:48.184Z,24.30
2018-05-14T12:45:44.682Z,25.40
2018-05-14T12:46:45.171Z,24.90
2018-05-14T12:48:40.639Z,23.50
2018-05-14T12:49:41.133Z,22.30
2018-05-14T12:51:36.123Z,24.00
2018-05-14T12:52:36.073Z,23.70
2018-05-14T12:54:34.220Z,21.30
2018-05-14T12:55:34.216Z,22.70
2018-05-14T12:57:31.696Z,21.50
2018-05-14T12:58:31.222Z,21.70
2018-05-14T13:00:27.175Z,20.70
2018-05-14T13:01:27.180Z,20.60
2018-05-14T13:03:23.161Z,21.10
2018-05-14T13:04:23.140Z,19.60
2018-05-14T13:06:21.147Z,19.90
2018-05-14T13:07:21.112Z,17.30
2018-05-14T13:09:19.617Z,19.40
2018-05-14T13:10:19.147Z,18.40
2018-05-14T13:12:15.065Z,18.30
2018-05-14T13:13:15.088Z,19.20
2018-05-14T13:15:14.548Z,17.10
2018-05-14T13:16:13.179Z,17.00
2018-05-14T13:18:09.660Z,16.00
2018-05-14T13:19:09.164Z,16.70
2018-05-14T13:21:10.127Z,18.00
2018-05-14T13:22:09.606Z,16.80
2018-05-14T13:24:10.622Z,14.60
2018-05-14T13:25:10.618Z,14.80
2018-05-14T13:27:06.084Z,14.90
2018-05-14T13:28:06.037Z,14.30
2018-05-14T13:30:04.593Z,13.80
2018-05-14T13:31:05.055Z,12.80
2018-05-14T13:33:04.552Z,12.90
2018-05-14T13:34:05.556Z,12.70
2018-05-14T13:36:06.617Z,13.50
2018-05-14T13:37:05.024Z,13.80
2018-05-14T13:39:01.523Z,13.90
2018-05-14T13:40:00.956Z,12.60
2018-05-14T13:42:01.934Z,12.30
2018-05-14T13:43:01.411Z,12.00
2018-05-14T13:44:59.612Z,13.20
2018-05-14T13:46:00.412Z,12.20
2018-05-14T13:47:57.538Z,12.70
2018-05-14T13:48:57.507Z,11.70
2018-05-14T13:50:54.517Z,11.40
2018-05-14T13:51:53.969Z,12.50
2018-05-14T13:53:49.403Z,12.00
2018-05-14T13:54:49.405Z,11.50
2018-05-14T13:56:47.885Z,10.90
2018-05-14T13:57:48.382Z,12.20
2018-05-14T13:59:46.621Z,11.00
2018-05-14T14:00:46.583Z,10.50
2018-05-14T14:02:42.684Z,11.10
2018-05-14T14:03:41.667Z,10.80
2018-05-14T14:05:37.667Z,10.90
2018-05-14T14:06:37.647Z,9.80
2018-05-14T14:08:33.605Z,10.20
2018-05-14T14:09:33.593Z,10.00
2018-05-14T14:11:30.111Z,9.50
2018-05-14T14:12:30.489Z,9.30
2018-05-14T14:14:25.506Z,9.50
2018-05-14T14:15:26.489Z,8.80
2018-05-14T14:17:21.494Z,8.90
2018-05-14T14:18:21.468Z,8.90
2018-05-14T14:20:17.939Z,8.00
2018-05-14T14:21:17.448Z,9.90
2018-05-14T14:23:14.449Z,9.30
2018-05-14T14:24:13.477Z,8.40
2018-05-14T14:26:09.358Z,8.60
2018-05-14T14:27:09.359Z,8.30
2018-05-14T14:29:06.339Z,8.60
2018-05-14T14:30:05.353Z,8.50
2018-05-14T14:32:02.317Z,8.80
2018-05-14T14:33:02.329Z,7.70
2018-05-14T14:34:58.317Z,8.00
2018-05-14T14:35:58.421Z,8.40
2018-05-14T14:37:54.254Z,7.30
2018-05-14T14:38:54.258Z,6.90
2018-05-14T14:40:50.747Z,7.10
2018-05-14T14:41:50.739Z,7.60
2018-05-14T14:43:46.158Z,7.00
2018-05-14T14:44:47.670Z,7.40
2018-05-14T14:46:42.641Z,8.00
2018-05-14T14:47:42.109Z,7.30
2018-05-14T14:49:39.081Z,7.60
2018-05-14T14:50:39.077Z,7.00
2018-05-14T14:52:34.085Z,7.10
2018-05-14T14:53:34.180Z,7.90
2018-05-14T14:55:30.067Z,6.80
2018-05-14T14:56:30.077Z,7.70
2018-05-14T14:58:26.573Z,7.30
2018-05-14T14:59:26.026Z,7.20
2018-05-14T15:01:22.502Z,7.80
2018-05-14T15:02:21.961Z,6.90
2018-05-14T15:04:17.931Z,6.30
2018-05-14T15:05:17.919Z,6.80
2018-05-14T15:07:13.881Z,9.00
2018-05-14T15:08:13.903Z,7.20
2018-05-14T15:10:09.892Z,6.90
2018-05-14T15:11:10.363Z,6.50
2018-05-14T15:13:08.828Z,7.30
2018-05-14T15:14:07.976Z,7.30
2018-05-14T15:16:05.451Z,8.70
2018-05-14T15:17:03.948Z,6.90
2018-05-14T15:19:00.953Z,6.60
2018-05-14T15:19:59.933Z,7.30
2018-05-14T15:21:56.880Z,6.20
2018-05-14T15:22:55.867Z,6.00
2018-05-14T15:24:51.859Z,6.50
2018-05-14T15:25:51.848Z,6.20
2018-05-14T15:27:47.809Z,5.80
2018-05-14T15:28:47.815Z,6.10
2018-05-14T15:30:43.783Z,6.30
2018-05-14T15:31:44.275Z,6.10
2018-05-14T15:33:39.714Z,5.90
2018-05-14T15:34:40.698Z,6.10
2018-05-14T15:36:36.177Z,6.00
2018-05-14T15:37:35.674Z,5.70
2018-05-14T15:39:33.658Z,6.60
2018-05-14T15:40:33.662Z,6.20
2018-05-14T15:42:30.108Z,5.40
2018-05-14T15:43:29.620Z,7.00
2018-05-14T15:45:25.644Z,5.50
2018-05-14T15:46:25.581Z,5.60
2018-05-14T15:48:23.646Z,5.60
2018-05-14T15:49:24.480Z,5.70
2018-05-14T15:51:19.475Z,5.80
2018-05-14T15:52:19.491Z,6.50
2018-05-14T15:54:15.952Z,5.40
2018-05-14T15:55:15.534Z,5.90
2018-05-14T15:57:11.430Z,6.20
2018-05-14T15:58:11.930Z,5.80
2018-05-14T16:00:10.922Z,5.60
2018-05-14T16:01:10.309Z,5.50
2018-05-14T16:03:07.540Z,6.00
2018-05-14T16:04:07.555Z,5.90
2018-05-14T16:06:03.516Z,6.40
2018-05-14T16:07:04.421Z,6.70
2018-05-14T16:08:59.509Z,5.30
2018-05-14T16:09:59.567Z,5.60
2018-05-14T16:11:55.463Z,5.30
2018-05-14T16:12:55.458Z,6.40
2018-05-14T16:14:51.966Z,6.10
2018-05-14T16:15:52.430Z,6.00
2018-05-14T16:17:47.947Z,6.10
2018-05-14T16:18:47.420Z,7.10
2018-05-14T16:20:43.901Z,6.40
2018-05-14T16:21:43.344Z,6.60
2018-05-14T16:23:39.290Z,6.60
2018-05-14T16:24:39.805Z,6.30
2018-05-14T16:26:35.303Z,5.50
2018-05-14T16:27:35.294Z,6.60
2018-05-14T16:29:31.770Z,5.30
2018-05-14T16:30:31.271Z,5.90
2018-05-14T16:32:28.259Z,6.20
2018-05-14T16:33:27.236Z,5.90
2018-05-14T16:35:23.692Z,5.50
2018-05-14T16:36:23.188Z,5.80
2018-05-14T16:38:19.135Z,6.10
2018-05-14T16:39:19.151Z,5.40
2018-05-14T16:41:17.602Z,5.40
2018-05-14T16:42:17.080Z,5.00
2018-05-14T16:44:13.553Z,5.30
2018-05-14T16:45:13.049Z,6.10
2018-05-14T16:47:09.533Z,7.00
2018-05-14T16:48:09.011Z,5.60
2018-05-14T16:50:04.992Z,6.70
2018-05-14T16:51:04.969Z,6.90
2018-05-14T16:53:03.457Z,5.60
2018-05-14T16:54:02.952Z,6.40
2018-05-14T16:55:59.946Z,5.90
2018-05-14T16:56:58.928Z,6.00
2018-05-14T16:58:55.886Z,6.00
2018-05-14T16:59:54.891Z,5.70
2018-05-14T17:01:52.351Z,5.40
2018-05-14T17:02:50.867Z,5.50
2018-05-14T17:04:46.904Z,7.00
2018-05-14T17:05:46.815Z,5.60
2018-05-14T17:07:42.804Z,5.80
2018-05-14T17:08:43.781Z,5.90
2018-05-14T17:10:37.302Z,5.10
2018-05-14T17:11:37.215Z,7.20
2018-05-14T17:13:34.190Z,5.50
2018-05-14T17:14:33.207Z,6.00
2018-05-14T17:16:30.687Z,5.70
2018-05-14T17:17:29.151Z,5.50
2018-05-14T17:19:25.149Z,7.20
2018-05-14T17:20:26.126Z,5.90
2018-05-14T17:22:22.593Z,6.30
2018-05-14T17:23:22.092Z,5.50
2018-05-14T17:25:18.084Z,5.60
2018-05-14T17:26:18.070Z,5.20
2018-05-14T17:28:13.018Z,6.70
2018-05-14T17:29:13.049Z,5.90
2018-05-14T17:31:08.972Z,6.20
2018-05-14T17:32:09.921Z,7.20
2018-05-14T17:34:05.434Z,6.10
2018-05-14T17:35:04.918Z,5.60
2018-05-14T17:37:01.827Z,5.80
2018-05-14T17:38:00.900Z,6.00
2018-05-14T17:39:56.875Z,5.90
2018-05-14T17:40:56.847Z,6.10
2018-05-14T17:42:54.816Z,6.40
2018-05-14T17:43:54.802Z,7.00
2018-05-14T17:45:50.781Z,7.90
2018-05-14T17:46:51.289Z,7.20
2018-05-14T17:48:46.754Z,6.30
2018-05-14T17:49:46.728Z,7.40
2018-05-14T17:51:42.750Z,6.00
2018-05-14T17:52:42.706Z,5.30
2018-05-14T17:54:38.685Z,6.30
2018-05-14T17:55:39.173Z,6.40
2018-05-14T17:57:34.665Z,6.70
2018-05-14T17:58:34.647Z,7.80
2018-05-14T18:00:33.609Z,5.90
2018-05-14T18:01:32.756Z,6.20
2018-05-14T18:03:28.709Z,5.60
2018-05-14T18:04:28.714Z,5.60
2018-05-14T18:06:24.715Z,5.90
2018-05-14T18:07:24.702Z,5.70
2018-05-14T18:09:20.672Z,6.10
2018-05-14T18:10:20.656Z,5.90
2018-05-14T18:12:18.623Z,6.10
2018-05-14T18:13:16.631Z,6.60
2018-05-14T18:15:12.595Z,5.70
2018-05-14T18:16:12.603Z,5.70
2018-05-14T18:18:10.096Z,6.00
2018-05-14T18:19:09.062Z,6.30
2018-05-14T18:21:07.531Z,6.50
2018-05-14T18:22:07.048Z,5.50
2018-05-14T18:24:02.460Z,6.70
2018-05-14T18:25:02.531Z,6.40
2018-05-14T18:26:58.926Z,5.70
2018-05-14T18:27:58.428Z,5.30
2018-05-14T18:29:54.425Z,9.40
2018-05-14T18:30:54.396Z,6.50
2018-05-14T18:32:50.371Z,5.60
2018-05-14T18:33:50.381Z,7.60
2018-05-14T18:35:46.296Z,5.70
2018-05-14T18:36:46.323Z,5.90
2018-05-14T18:38:42.263Z,6.20
2018-05-14T18:39:42.262Z,5.90
2018-05-14T18:41:38.169Z,7.50
2018-05-14T18:42:38.195Z,5.90
2018-05-14T18:44:34.156Z,6.90
2018-05-14T18:45:34.173Z,5.90
2018-05-14T18:47:30.154Z,7.00
2018-05-14T18:48:30.130Z,6.70
2018-05-14T18:50:28.092Z,5.30